createdAt,value
2017-05-06T00:01:13.016Z,40.15
2017-05-06T00:02:12.805Z,39.86
2017-05-06T00:03:12.741Z,40.24
2017-05-06T00:04:12.682Z,40.15
2017-05-06T00:05:12.617Z,40.15
2017-05-06T00:06:12.802Z,39.76
2017-05-06T00:07:12.491Z,39.95
2017-05-06T00:08:12.427Z,40.15
2017-05-06T00:09:12.369Z,39.86
2017-05-06T00:10:12.001Z,39.76
2017-05-06T00:11:12.242Z,39.66
2017-05-06T00:12:12.198Z,39.66
2017-05-06T00:13:12.120Z,39.76
2017-05-06T00:14:12.061Z,39.66
2017-05-06T00:15:11.996Z,40.24
2017-05-06T00:16:11.934Z,39.86
2017-05-06T00:17:11.562Z,39.86
2017-05-06T00:18:11.808Z,39.95
2017-05-06T00:19:11.750Z,39.76
2017-05-06T00:20:11.861Z,39.95
2017-05-06T00:21:11.624Z,39.57
2017-05-06T00:22:11.559Z,39.95
2017-05-06T00:23:11.502Z,39.57
2017-05-06T00:24:11.437Z,39.76
2017-05-06T00:25:11.401Z,39.47
2017-05-06T00:26:11.312Z,39.57
2017-05-06T00:27:11.251Z,39.76
2017-05-06T00:28:11.189Z,39.47
2017-05-06T00:29:11.127Z,39.76
2017-05-06T00:30:11.063Z,39.47
2017-05-06T00:31:11.001Z,39.47
2017-05-06T00:32:10.940Z,39.57
2017-05-06T00:33:10.877Z,39.57
2017-05-06T00:34:10.814Z,39.76
2017-05-06T00:35:10.441Z,39.57
2017-05-06T00:36:10.690Z,39.66
2017-05-06T00:37:10.317Z,39.57
2017-05-06T00:38:10.567Z,39.47
2017-05-06T00:39:10.509Z,39.37
2017-05-06T00:40:10.134Z,39.57
2017-05-06T00:41:10.749Z,39.47
2017-05-06T00:42:10.319Z,39.66
2017-05-06T00:43:09.947Z,39.37
2017-05-06T00:44:10.199Z,39.47
2017-05-06T00:45:10.132Z,39.37
2017-05-06T00:46:09.760Z,39.76
2017-05-06T00:47:10.007Z,39.57
2017-05-06T00:48:09.947Z,39.37
2017-05-06T00:49:09.884Z,39.28
2017-05-06T00:50:09.824Z,39.86
2017-05-06T00:51:09.763Z,39.37
2017-05-06T00:52:09.697Z,39.57
2017-05-06T00:53:09.640Z,39.37
2017-05-06T00:54:09.579Z,39.76
2017-05-06T00:55:09.509Z,39.57
2017-05-06T00:56:09.447Z,39.47
2017-05-06T00:57:09.387Z,39.47
2017-05-06T00:58:09.353Z,39.47
2017-05-06T00:59:09.262Z,39.57
2017-05-06T01:00:08.888Z,39.57
2017-05-06T01:01:09.139Z,39.37
2017-05-06T01:02:08.765Z,39.47
2017-05-06T01:03:09.024Z,39.47
2017-05-06T01:04:08.950Z,39.28
2017-05-06T01:05:08.889Z,39.28
2017-05-06T01:06:08.827Z,39.57
2017-05-06T01:07:08.761Z,39.37
2017-05-06T01:08:08.703Z,39.76
2017-05-06T01:09:08.646Z,39.57
2017-05-06T01:10:08.271Z,39.37
2017-05-06T01:11:08.518Z,39.47
2017-05-06T01:12:08.455Z,39.37
2017-05-06T01:13:08.391Z,39.57
2017-05-06T01:14:08.329Z,39.47
2017-05-06T01:15:08.266Z,39.47
2017-05-06T01:16:08.205Z,39.57
2017-05-06T01:17:08.142Z,39.28
2017-05-06T01:18:08.079Z,39.66
2017-05-06T01:19:08.018Z,39.57
2017-05-06T01:20:07.955Z,39.57
2017-05-06T01:21:07.893Z,39.57
2017-05-06T01:22:07.828Z,39.37
2017-05-06T01:23:07.774Z,39.57
2017-05-06T01:24:07.712Z,39.57
2017-05-06T01:25:07.649Z,39.57
2017-05-06T01:26:07.589Z,39.47
2017-05-06T01:27:07.528Z,39.37
2017-05-06T01:28:07.459Z,39.28
2017-05-06T01:29:07.399Z,39.66
2017-05-06T01:30:07.333Z,39.57
2017-05-06T01:31:07.279Z,39.57
2017-05-06T01:32:07.207Z,39.37
2017-05-06T01:33:07.147Z,39.37
2017-05-06T01:34:07.087Z,39.37
2017-05-06T01:35:07.023Z,39.29
2017-05-06T01:36:06.963Z,39.47
2017-05-06T01:37:06.594Z,39.57
2017-05-06T01:38:06.840Z,39.37
2017-05-06T01:39:06.776Z,39.18
2017-05-06T01:40:06.714Z,39.28
2017-05-06T01:41:06.348Z,39.37
2017-05-06T01:42:06.594Z,39.47
2017-05-06T01:43:06.530Z,39.18
2017-05-06T01:44:06.466Z,39.37
2017-05-06T01:45:06.402Z,39.28
2017-05-06T01:46:06.349Z,39.37
2017-05-06T01:47:05.973Z,39.28
2017-05-06T01:48:06.221Z,39.47
2017-05-06T01:49:06.152Z,39.28
2017-05-06T01:50:06.093Z,39.18
2017-05-06T01:51:06.032Z,39.37
2017-05-06T01:52:05.685Z,39.37
2017-05-06T01:53:05.906Z,39.37
2017-05-06T01:54:05.848Z,39.37
2017-05-06T01:55:05.474Z,39.47
2017-05-06T01:56:05.415Z,39.37
2017-05-06T01:57:05.350Z,39.28
2017-05-06T01:58:05.608Z,39.37
2017-05-06T01:59:05.537Z,39.28
2017-05-06T02:00:05.472Z,39.47
2017-05-06T02:01:05.410Z,39.47
2017-05-06T02:02:05.346Z,39.18
2017-05-06T02:03:05.287Z,39.47
2017-05-06T02:04:05.222Z,39.28
2017-05-06T02:05:05.161Z,39.18
2017-05-06T02:06:05.102Z,39.28
2017-05-06T02:07:05.036Z,39.37
2017-05-06T02:08:04.974Z,39.47
2017-05-06T02:09:04.920Z,39.28
2017-05-06T02:10:04.853Z,39.37
2017-05-06T02:11:04.787Z,39.47
2017-05-06T02:12:04.724Z,39.37
2017-05-06T02:13:04.662Z,39.18
2017-05-06T02:14:04.606Z,39.37
2017-05-06T02:15:04.546Z,39.57
2017-05-06T02:16:04.478Z,39.57
2017-05-06T02:17:04.118Z,39.28
2017-05-06T02:18:04.354Z,39.47
2017-05-06T02:19:04.290Z,39.57
2017-05-06T02:20:04.070Z,39.37
2017-05-06T02:21:04.168Z,39.37
2017-05-06T02:22:04.105Z,39.57
2017-05-06T02:23:04.047Z,39.47
2017-05-06T02:24:03.983Z,39.47
2017-05-06T02:25:03.923Z,39.37
2017-05-06T02:26:03.858Z,39.37
2017-05-06T02:27:03.795Z,39.37
2017-05-06T02:28:03.735Z,39.57
2017-05-06T02:29:03.672Z,39.37
2017-05-06T02:30:03.608Z,39.47
2017-05-06T02:31:03.546Z,39.37
2017-05-06T02:32:03.487Z,39.47
2017-05-06T02:33:03.803Z,39.47
2017-05-06T02:34:03.369Z,39.47
2017-05-06T02:35:03.296Z,39.57
2017-05-06T02:36:03.241Z,39.57
2017-05-06T02:37:02.869Z,39.28
2017-05-06T02:38:03.111Z,39.28
2017-05-06T02:39:03.050Z,39.37
2017-05-06T02:40:02.988Z,39.37
2017-05-06T02:41:02.925Z,39.37
2017-05-06T02:42:02.552Z,39.37
2017-05-06T02:43:02.803Z,39.37
2017-05-06T02:44:02.741Z,39.47
2017-05-06T02:45:02.678Z,39.37
2017-05-06T02:46:02.618Z,39.57
2017-05-06T02:47:02.553Z,39.37
2017-05-06T02:48:02.489Z,39.47
2017-05-06T02:49:02.427Z,39.47
2017-05-06T02:50:02.370Z,39.47
2017-05-06T02:51:02.307Z,39.47
2017-05-06T02:52:02.246Z,39.28
2017-05-06T02:53:02.189Z,39.47
2017-05-06T02:54:02.132Z,39.28
2017-05-06T02:55:02.054Z,39.37
2017-05-06T02:56:01.993Z,39.47
2017-05-06T02:57:01.931Z,39.66
2017-05-06T02:58:01.867Z,39.37
2017-05-06T02:59:01.810Z,39.57
2017-05-06T03:00:01.742Z,39.37
2017-05-06T03:01:01.681Z,39.37
2017-05-06T03:02:01.623Z,39.47
2017-05-06T03:03:01.247Z,39.37
2017-05-06T03:04:01.186Z,39.37
2017-05-06T03:05:01.435Z,39.28
2017-05-06T03:06:01.064Z,39.47
2017-05-06T03:07:01.001Z,39.37
2017-05-06T03:08:01.250Z,39.37
2017-05-06T03:09:01.186Z,39.37
2017-05-06T03:10:01.126Z,39.47
2017-05-06T03:11:01.061Z,39.28
2017-05-06T03:12:00.996Z,39.37
2017-05-06T03:13:00.938Z,39.37
2017-05-06T03:14:00.874Z,39.47
2017-05-06T03:15:00.812Z,39.66
2017-05-06T03:16:00.755Z,39.57
2017-05-06T03:17:00.688Z,39.47
2017-05-06T03:18:00.627Z,39.28
2017-05-06T03:19:00.574Z,39.37
2017-05-06T03:20:00.504Z,39.37
2017-05-06T03:21:00.445Z,39.47
2017-05-06T03:22:00.393Z,39.28
2017-05-06T03:23:00.316Z,39.57
2017-05-06T03:24:00.253Z,39.37
2017-05-06T03:25:00.196Z,39.28
2017-05-06T03:26:00.131Z,39.57
2017-05-06T03:27:00.070Z,39.57
2017-05-06T03:28:00.030Z,39.57
2017-05-06T03:28:59.943Z,39.57
2017-05-06T03:29:59.883Z,39.37
2017-05-06T03:30:59.823Z,39.37
2017-05-06T03:31:59.756Z,39.57
2017-05-06T03:32:59.696Z,39.47
2017-05-06T03:33:59.645Z,39.37
2017-05-06T03:34:59.573Z,39.57
2017-05-06T03:35:59.510Z,39.66
2017-05-06T03:36:59.446Z,39.37
2017-05-06T03:37:59.386Z,39.66
2017-05-06T03:38:59.326Z,39.28
2017-05-06T03:39:59.261Z,39.37
2017-05-06T03:40:59.199Z,39.47
2017-05-06T03:41:59.136Z,39.57
2017-05-06T03:42:59.073Z,39.57
2017-05-06T03:43:59.012Z,39.57
2017-05-06T03:44:58.949Z,39.57
2017-05-06T03:45:58.889Z,39.57
2017-05-06T03:46:58.824Z,39.57
2017-05-06T03:47:58.768Z,39.57
2017-05-06T03:48:58.703Z,39.28
2017-05-06T03:49:58.641Z,39.66
2017-05-06T03:50:58.579Z,39.57
2017-05-06T03:51:58.515Z,39.57
2017-05-06T03:52:58.454Z,39.47
2017-05-06T03:53:58.391Z,39.57
2017-05-06T03:54:58.330Z,39.57
2017-05-06T03:55:58.267Z,39.18
2017-05-06T03:56:58.205Z,39.57
2017-05-06T03:57:58.144Z,39.57
2017-05-06T03:58:58.080Z,39.57
2017-05-06T03:59:58.017Z,39.66
2017-05-06T04:00:57.957Z,39.37
2017-05-06T04:01:57.894Z,38.99
2017-05-06T04:02:57.837Z,39.66
2017-05-06T04:03:57.773Z,39.18
2017-05-06T04:04:57.710Z,38.7
2017-05-06T04:05:57.647Z,39.57
2017-05-06T04:06:57.580Z,38.99
2017-05-06T04:07:57.533Z,39.57
2017-05-06T04:08:57.459Z,39.18
2017-05-06T04:09:57.396Z,38.79
2017-05-06T04:10:57.336Z,39.66
2017-05-06T04:11:57.275Z,39.28
2017-05-06T04:12:57.221Z,39.18
2017-05-06T04:13:57.150Z,39.57
2017-05-06T04:14:57.085Z,38.89
2017-05-06T04:15:57.024Z,39.09
2017-05-06T04:16:56.967Z,38.7
2017-05-06T04:17:56.910Z,38.79
2017-05-06T04:18:56.841Z,38.99
2017-05-06T04:19:56.781Z,39.18
2017-05-06T04:20:56.712Z,39.18
2017-05-06T04:21:56.652Z,38.89
2017-05-06T04:22:56.591Z,38.79
2017-05-06T04:23:56.527Z,39.09
2017-05-06T04:24:56.474Z,38.89
2017-05-06T04:25:56.403Z,38.89
2017-05-06T04:26:56.342Z,38.99
2017-05-06T04:27:56.280Z,38.7
2017-05-06T04:28:56.218Z,38.99
2017-05-06T04:29:56.160Z,38.79
2017-05-06T04:30:56.094Z,38.99
2017-05-06T04:31:56.032Z,38.89
2017-05-06T04:32:55.971Z,38.7
2017-05-06T04:33:55.915Z,38.89
2017-05-06T04:34:55.860Z,38.89
2017-05-06T04:35:55.783Z,38.99
2017-05-06T04:36:55.720Z,38.79
2017-05-06T04:37:55.657Z,38.99
2017-05-06T04:38:55.598Z,38.99
2017-05-06T04:39:55.535Z,38.89
2017-05-06T04:40:55.469Z,38.89
2017-05-06T04:41:55.405Z,38.89
2017-05-06T04:42:55.348Z,38.89
2017-05-06T04:43:55.287Z,38.89
2017-05-06T04:44:55.223Z,38.89
2017-05-06T04:45:55.160Z,38.99
2017-05-06T04:46:55.100Z,38.89
2017-05-06T04:47:55.039Z,38.99
2017-05-06T04:48:54.981Z,38.99
2017-05-06T04:49:54.913Z,39.09
2017-05-06T04:50:54.850Z,38.99
2017-05-06T04:51:54.786Z,38.89
2017-05-06T04:52:54.729Z,38.99
2017-05-06T04:53:54.670Z,38.89
2017-05-06T04:54:54.615Z,38.89
2017-05-06T04:55:54.550Z,38.89
2017-05-06T04:56:54.478Z,38.79
2017-05-06T04:57:54.418Z,38.79
2017-05-06T04:58:54.355Z,38.89
2017-05-06T04:59:54.290Z,38.99
2017-05-06T05:00:54.232Z,38.79
2017-05-06T05:01:54.169Z,38.91
2017-05-06T05:02:54.110Z,38.79
2017-05-06T05:03:54.041Z,38.89
2017-05-06T05:04:53.981Z,39.28
2017-05-06T05:05:53.921Z,38.99
2017-05-06T05:06:53.859Z,38.79
2017-05-06T05:07:53.796Z,38.89
2017-05-06T05:08:53.730Z,38.89
2017-05-06T05:09:53.670Z,38.79
2017-05-06T05:10:53.705Z,38.7
2017-05-06T05:11:53.545Z,38.79
2017-05-06T05:12:53.485Z,38.89
2017-05-06T05:13:53.422Z,38.7
2017-05-06T05:14:53.370Z,38.89
2017-05-06T05:15:53.295Z,38.89
2017-05-06T05:16:53.239Z,39.37
2017-05-06T05:17:53.170Z,39.09
2017-05-06T05:18:53.109Z,39.37
2017-05-06T05:19:53.049Z,39.37
2017-05-06T05:20:52.986Z,39.37
2017-05-06T05:21:52.924Z,39.37
2017-05-06T05:22:52.860Z,39.57
2017-05-06T05:23:52.799Z,39.18
2017-05-06T05:24:53.108Z,38.79
2017-05-06T05:25:52.680Z,39.09
2017-05-06T05:26:52.617Z,39.18
2017-05-06T05:27:52.551Z,39.57
2017-05-06T05:28:52.488Z,39.66
2017-05-06T05:29:52.424Z,39.57
2017-05-06T05:30:52.361Z,39.47
2017-05-06T05:31:52.319Z,39.09
2017-05-06T05:32:52.241Z,39.66
2017-05-06T05:33:52.180Z,39.18
2017-05-06T05:34:52.118Z,39.28
2017-05-06T05:35:52.057Z,39.28
2017-05-06T05:36:51.993Z,39.57
2017-05-06T05:37:51.933Z,39.66
2017-05-06T05:38:51.870Z,39.37
2017-05-06T05:39:51.494Z,39.47
2017-05-06T05:40:51.743Z,39.47
2017-05-06T05:41:51.679Z,39.76
2017-05-06T05:42:51.618Z,39.57
2017-05-06T05:43:51.561Z,39.37
2017-05-06T05:44:51.497Z,39.76
2017-05-06T05:45:51.433Z,39.57
2017-05-06T05:46:51.370Z,39.66
2017-05-06T05:47:51.332Z,39.18
2017-05-06T05:48:51.245Z,39.57
2017-05-06T05:49:51.183Z,39.57
2017-05-06T05:50:51.123Z,39.18
2017-05-06T05:51:51.078Z,39.47
2017-05-06T05:52:51.000Z,39.66
2017-05-06T05:53:50.934Z,39.57
2017-05-06T05:54:50.875Z,39.57
2017-05-06T05:55:50.818Z,39.57
2017-05-06T05:56:50.747Z,39.57
2017-05-06T05:57:50.698Z,39.57
2017-05-06T05:58:50.653Z,39.57
2017-05-06T05:59:50.563Z,39.57
2017-05-06T06:00:50.508Z,39.57
2017-05-06T06:01:50.444Z,39.57
2017-05-06T06:02:50.377Z,39.57
2017-05-06T06:03:50.315Z,39.47
2017-05-06T06:04:50.254Z,39.37
2017-05-06T06:05:50.187Z,39.57
2017-05-06T06:06:50.127Z,39.37
2017-05-06T06:07:50.064Z,39.47
2017-05-06T06:08:50.002Z,39.47
2017-05-06T06:09:49.939Z,39.47
2017-05-06T06:10:49.879Z,39.47
2017-05-06T06:11:49.817Z,39.28
2017-05-06T06:12:49.785Z,39.37
2017-05-06T06:13:49.700Z,39.37
2017-05-06T06:14:49.635Z,39.37
2017-05-06T06:15:49.568Z,39.37
2017-05-06T06:16:49.508Z,39.47
2017-05-06T06:17:49.440Z,39.37
2017-05-06T06:18:49.378Z,39.47
2017-05-06T06:19:49.319Z,39.37
2017-05-06T06:20:49.257Z,39.37
2017-05-06T06:21:49.199Z,39.47
2017-05-06T06:22:49.133Z,39.37
2017-05-06T06:23:49.069Z,39.47
2017-05-06T06:24:49.011Z,39.47
2017-05-06T06:25:48.636Z,39.37
2017-05-06T06:26:48.883Z,39.47
2017-05-06T06:27:48.823Z,39.47
2017-05-06T06:28:48.760Z,39.57
2017-05-06T06:29:48.720Z,39.37
2017-05-06T06:30:48.636Z,39.37
2017-05-06T06:31:48.574Z,39.47
2017-05-06T06:32:48.515Z,39.37
2017-05-06T06:33:48.452Z,39.37
2017-05-06T06:34:48.385Z,39.37
2017-05-06T06:35:48.323Z,39.37
2017-05-06T06:36:48.263Z,39.47
2017-05-06T06:37:48.208Z,39.37
2017-05-06T06:38:47.827Z,39.28
2017-05-06T06:39:48.097Z,39.18
2017-05-06T06:40:48.021Z,39.37
2017-05-06T06:41:47.948Z,39.28
2017-05-06T06:42:47.888Z,39.47
2017-05-06T06:43:47.826Z,39.37
2017-05-06T06:44:47.763Z,39.47
2017-05-06T06:45:47.704Z,39.28
2017-05-06T06:46:47.640Z,39.37
2017-05-06T06:47:47.582Z,39.37
2017-05-06T06:48:47.517Z,39.47
2017-05-06T06:49:47.452Z,39.37
2017-05-06T06:50:47.491Z,39.66
2017-05-06T06:51:47.330Z,39.57
2017-05-06T06:52:47.268Z,39.47
2017-05-06T06:53:47.205Z,39.28
2017-05-06T06:54:46.835Z,39.47
2017-05-06T06:55:47.231Z,39.76
2017-05-06T06:56:47.017Z,39.28
2017-05-06T06:57:46.953Z,39.47
2017-05-06T06:58:46.893Z,39.37
2017-05-06T06:59:46.839Z,39.57
2017-05-06T07:00:46.775Z,39.66
2017-05-06T07:01:46.708Z,39.57
2017-05-06T07:02:46.644Z,39.57
2017-05-06T07:03:46.585Z,39.47
2017-05-06T07:04:46.521Z,39.37
2017-05-06T07:05:46.151Z,39.47
2017-05-06T07:06:46.398Z,39.47
2017-05-06T07:07:46.334Z,39.76
2017-05-06T07:08:46.271Z,39.47
2017-05-06T07:09:46.212Z,39.37
2017-05-06T07:10:46.148Z,39.37
2017-05-06T07:11:46.087Z,39.47
2017-05-06T07:12:46.026Z,39.57
2017-05-06T07:13:45.962Z,39.37
2017-05-06T07:14:45.899Z,39.57
2017-05-06T07:15:45.835Z,39.57
2017-05-06T07:16:45.774Z,39.47
2017-05-06T07:17:45.716Z,39.66
2017-05-06T07:18:45.339Z,39.47
2017-05-06T07:19:45.278Z,39.66
2017-05-06T07:20:45.523Z,39.57
2017-05-06T07:21:45.464Z,39.57
2017-05-06T07:22:45.401Z,39.66
2017-05-06T07:23:45.343Z,39.57
2017-05-06T07:24:45.290Z,39.57
2017-05-06T07:25:44.905Z,39.66
2017-05-06T07:26:45.154Z,39.76
2017-05-06T07:27:45.092Z,40.34
2017-05-06T07:28:45.032Z,39.66
2017-05-06T07:29:44.966Z,39.76
2017-05-06T07:30:44.903Z,39.86
2017-05-06T07:31:44.839Z,39.86
2017-05-06T07:32:44.780Z,39.86
2017-05-06T07:33:44.718Z,40.24
2017-05-06T07:34:44.655Z,40.34
2017-05-06T07:35:44.591Z,39.95
2017-05-06T07:36:44.529Z,39.66
2017-05-06T07:37:44.161Z,39.95
2017-05-06T07:38:44.412Z,40.05
2017-05-06T07:39:44.348Z,39.86
2017-05-06T07:40:44.534Z,40.15
2017-05-06T07:41:44.226Z,39.86
2017-05-06T07:42:44.160Z,40.05
2017-05-06T07:43:44.096Z,40.15
2017-05-06T07:44:44.032Z,39.95
2017-05-06T07:45:43.817Z,40.05
2017-05-06T07:46:43.905Z,39.95
2017-05-06T07:47:43.843Z,40.15
2017-05-06T07:48:43.784Z,39.95
2017-05-06T07:49:43.722Z,39.76
2017-05-06T07:50:43.913Z,40.05
2017-05-06T07:51:43.601Z,40.15
2017-05-06T07:52:43.534Z,40.15
2017-05-06T07:53:43.474Z,39.86
2017-05-06T07:54:43.411Z,40.05
2017-05-06T07:55:43.348Z,40.72
2017-05-06T07:56:43.289Z,40.63
2017-05-06T07:57:43.226Z,40.05
2017-05-06T07:58:43.162Z,40.44
2017-05-06T07:59:43.099Z,40.24
2017-05-06T08:00:43.043Z,40.53
2017-05-06T08:01:42.977Z,40.34
2017-05-06T08:02:42.911Z,40.24
2017-05-06T08:03:42.852Z,40.34
2017-05-06T08:04:42.789Z,40.44
2017-05-06T08:05:42.728Z,40.24
2017-05-06T08:06:42.666Z,40.34
2017-05-06T08:07:42.601Z,40.34
2017-05-06T08:08:42.544Z,40.44
2017-05-06T08:09:42.476Z,40.34
2017-05-06T08:10:42.515Z,40.24
2017-05-06T08:11:42.353Z,40.24
2017-05-06T08:12:42.293Z,40.53
2017-05-06T08:13:42.230Z,40.53
2017-05-06T08:14:42.166Z,40.24
2017-05-06T08:15:42.253Z,40.24
2017-05-06T08:16:42.057Z,40.34
2017-05-06T08:17:41.978Z,40.24
2017-05-06T08:18:41.918Z,40.24
2017-05-06T08:19:41.853Z,40.15
2017-05-06T08:20:41.938Z,40.05
2017-05-06T08:21:41.731Z,40.15
2017-05-06T08:22:41.667Z,40.15
2017-05-06T08:23:41.607Z,40.24
2017-05-06T08:24:41.545Z,40.24
2017-05-06T08:25:41.732Z,40.24
2017-05-06T08:26:41.419Z,40.53
2017-05-06T08:27:41.357Z,40.05
2017-05-06T08:28:41.298Z,40.24
2017-05-06T08:29:41.231Z,40.34
2017-05-06T08:30:41.171Z,40.53
2017-05-06T08:31:41.108Z,40.34
2017-05-06T08:32:41.045Z,40.15
2017-05-06T08:33:40.983Z,40.63
2017-05-06T08:34:40.921Z,40.05
2017-05-06T08:35:40.857Z,40.44
2017-05-06T08:36:40.798Z,40.63
2017-05-06T08:37:40.736Z,40.24
2017-05-06T08:38:40.673Z,40.44
2017-05-06T08:39:40.608Z,40.34
2017-05-06T08:40:40.548Z,40.34
2017-05-06T08:41:40.488Z,40.34
2017-05-06T08:42:40.423Z,40.05
2017-05-06T08:43:40.358Z,40.24
2017-05-06T08:44:40.300Z,40.53
2017-05-06T08:45:40.237Z,40.05
2017-05-06T08:46:40.175Z,40.05
2017-05-06T08:47:40.114Z,40.05
2017-05-06T08:48:40.058Z,40.15
2017-05-06T08:49:39.992Z,40.24
2017-05-06T08:50:39.925Z,40.34
2017-05-06T08:51:39.864Z,40.15
2017-05-06T08:52:39.802Z,39.95
2017-05-06T08:53:40.112Z,40.34
2017-05-06T08:54:39.675Z,40.05
2017-05-06T08:55:39.713Z,40.15
2017-05-06T08:56:39.555Z,40.15
2017-05-06T08:57:39.495Z,39.86
2017-05-06T08:58:39.432Z,39.95
2017-05-06T08:59:39.363Z,40.15
2017-05-06T09:00:39.406Z,40.24
2017-05-06T09:01:38.932Z,40.15
2017-05-06T09:02:39.178Z,40.05
2017-05-06T09:03:39.113Z,40.15
2017-05-06T09:04:38.744Z,40.15
2017-05-06T09:05:39.248Z,40.34
2017-05-06T09:06:38.929Z,40.24
2017-05-06T09:07:38.869Z,40.34
2017-05-06T09:08:38.806Z,39.95
2017-05-06T09:09:38.745Z,40.05
2017-05-06T09:10:38.678Z,40.15
2017-05-06T09:11:38.618Z,40.05
2017-05-06T09:12:38.566Z,40.24
2017-05-06T09:13:38.493Z,40.05
2017-05-06T09:14:38.434Z,40.15
2017-05-06T09:15:38.369Z,40.15
2017-05-06T09:16:38.308Z,40.24
2017-05-06T09:17:38.246Z,40.24
2017-05-06T09:18:38.184Z,40.24
2017-05-06T09:19:38.118Z,40.24
2017-05-06T09:20:38.159Z,40.34
2017-05-06T09:21:38.000Z,40.34
2017-05-06T09:22:37.622Z,40.34
2017-05-06T09:23:37.565Z,40.44
2017-05-06T09:24:37.809Z,40.24
2017-05-06T09:25:37.998Z,40.44
2017-05-06T09:26:37.693Z,40.24
2017-05-06T09:27:37.649Z,40.15
2017-05-06T09:28:37.560Z,39.76
2017-05-06T09:29:37.500Z,40.05
2017-05-06T09:30:37.440Z,40.05
2017-05-06T09:31:37.750Z,39.95
2017-05-06T09:32:37.313Z,39.95
2017-05-06T09:33:36.944Z,40.15
2017-05-06T09:34:37.186Z,39.95
2017-05-06T09:35:37.128Z,39.66
2017-05-06T09:36:37.066Z,39.76
2017-05-06T09:37:37.007Z,39.66
2017-05-06T09:38:36.941Z,39.76
2017-05-06T09:39:36.877Z,39.57
2017-05-06T09:40:36.505Z,39.47
2017-05-06T09:41:36.442Z,39.28
2017-05-06T09:42:36.697Z,39.86
2017-05-06T09:43:36.627Z,39.86
2017-05-06T09:44:36.568Z,39.47
2017-05-06T09:45:36.501Z,39.37
2017-05-06T09:46:36.439Z,39.57
2017-05-06T09:47:36.379Z,39.47
2017-05-06T09:48:36.321Z,39.66
2017-05-06T09:49:36.254Z,39.18
2017-05-06T09:50:36.193Z,39.28
2017-05-06T09:51:36.132Z,39.57
2017-05-06T09:52:36.068Z,39.28
2017-05-06T09:53:36.007Z,39.37
2017-05-06T09:54:35.945Z,39.66
2017-05-06T09:55:35.889Z,39.57
2017-05-06T09:56:35.821Z,39.57
2017-05-06T09:57:35.757Z,39.57
2017-05-06T09:58:35.716Z,38.99
2017-05-06T09:59:35.635Z,38.89
2017-05-06T10:00:35.801Z,38.89
2017-05-06T10:01:35.508Z,39.18
2017-05-06T10:02:35.447Z,39.09
2017-05-06T10:03:35.381Z,39.09
2017-05-06T10:04:35.322Z,39.09
2017-05-06T10:05:35.266Z,38.99
2017-05-06T10:06:35.196Z,39.09
2017-05-06T10:07:35.135Z,39.09
2017-05-06T10:08:35.070Z,38.79
2017-05-06T10:09:35.013Z,38.79
2017-05-06T10:10:34.646Z,38.79
2017-05-06T10:11:34.889Z,38.51
2017-05-06T10:12:34.824Z,38.6
2017-05-06T10:13:34.761Z,38.41
2017-05-06T10:14:34.392Z,38.6
2017-05-06T10:15:34.637Z,38.21
2017-05-06T10:16:34.574Z,38.41
2017-05-06T10:17:34.517Z,38.12
2017-05-06T10:18:34.819Z,38.12
2017-05-06T10:19:34.386Z,38.41
2017-05-06T10:20:34.329Z,38.51
2017-05-06T10:21:34.263Z,38.51
2017-05-06T10:22:34.202Z,38.41
2017-05-06T10:23:34.138Z,38.7
2017-05-06T10:24:34.077Z,38.31
2017-05-06T10:25:34.322Z,38.12
2017-05-06T10:26:33.951Z,38.21
2017-05-06T10:27:33.894Z,38.31
2017-05-06T10:28:33.827Z,38.41
2017-05-06T10:29:33.766Z,38.51
2017-05-06T10:30:33.954Z,38.41
2017-05-06T10:31:33.644Z,38.31
2017-05-06T10:32:33.580Z,38.31
2017-05-06T10:33:33.517Z,38.12
2017-05-06T10:34:33.457Z,38.12
2017-05-06T10:35:33.394Z,38.41
2017-05-06T10:36:33.022Z,38.31
2017-05-06T10:37:33.268Z,38.12
2017-05-06T10:38:33.207Z,38.41
2017-05-06T10:39:33.143Z,38.21
2017-05-06T10:40:33.084Z,38.51
2017-05-06T10:41:33.024Z,38.41
2017-05-06T10:42:32.959Z,38.31
2017-05-06T10:43:33.146Z,38.31
2017-05-06T10:44:32.835Z,38.31
2017-05-06T10:45:32.773Z,38.31
2017-05-06T10:46:32.707Z,38.31
2017-05-06T10:47:32.649Z,38.02
2017-05-06T10:48:32.585Z,38.02
2017-05-06T10:49:32.524Z,38.02
2017-05-06T10:50:32.461Z,37.93
2017-05-06T10:51:32.398Z,38.12
2017-05-06T10:52:32.065Z,37.93
2017-05-06T10:53:32.274Z,37.93
2017-05-06T10:54:32.211Z,37.93
2017-05-06T10:55:32.154Z,37.73
2017-05-06T10:56:31.777Z,37.63
2017-05-06T10:57:32.024Z,37.83
2017-05-06T10:58:31.962Z,37.73
2017-05-06T10:59:31.898Z,37.63
2017-05-06T11:00:31.898Z,37.63
2017-05-06T11:01:31.774Z,37.63
2017-05-06T11:02:31.714Z,37.63
2017-05-06T11:03:31.346Z,37.93
2017-05-06T11:04:31.586Z,37.54
2017-05-06T11:05:31.526Z,37.54
2017-05-06T11:06:31.466Z,37.54
2017-05-06T11:07:31.406Z,37.54
2017-05-06T11:08:31.344Z,37.63
2017-05-06T11:09:31.277Z,37.73
2017-05-06T11:10:31.219Z,37.63
2017-05-06T11:11:31.154Z,37.63
2017-05-06T11:12:31.099Z,37.63
2017-05-06T11:13:30.729Z,37.63
2017-05-06T11:14:30.972Z,37.54
2017-05-06T11:15:30.906Z,37.54
2017-05-06T11:16:30.843Z,37.63
2017-05-06T11:17:30.779Z,37.63
2017-05-06T11:18:30.722Z,37.73
2017-05-06T11:19:30.346Z,37.54
2017-05-06T11:20:30.775Z,37.73
2017-05-06T11:21:30.225Z,37.63
2017-05-06T11:22:30.162Z,37.63
2017-05-06T11:23:30.419Z,37.54
2017-05-06T11:24:30.345Z,37.54
2017-05-06T11:25:30.285Z,37.45
2017-05-06T11:26:29.934Z,37.63
2017-05-06T11:27:30.159Z,37.63
2017-05-06T11:28:29.785Z,37.73
2017-05-06T11:29:30.035Z,37.73
2017-05-06T11:30:29.974Z,37.54
2017-05-06T11:31:29.912Z,37.45
2017-05-06T11:32:29.849Z,37.63
2017-05-06T11:33:29.790Z,37.54
2017-05-06T11:34:29.724Z,37.63
2017-05-06T11:35:29.666Z,37.83
2017-05-06T11:36:29.609Z,37.63
2017-05-06T11:37:29.544Z,37.54
2017-05-06T11:38:29.475Z,37.73
2017-05-06T11:39:29.414Z,37.83
2017-05-06T11:40:29.349Z,37.83
2017-05-06T11:41:29.287Z,37.45
2017-05-06T11:42:28.944Z,37.73
2017-05-06T11:43:29.168Z,37.93
2017-05-06T11:44:28.806Z,37.45
2017-05-06T11:45:29.047Z,37.73
2017-05-06T11:46:28.980Z,37.54
2017-05-06T11:47:28.617Z,37.54
2017-05-06T11:48:28.862Z,37.54
2017-05-06T11:49:28.809Z,37.73
2017-05-06T11:50:28.746Z,37.45
2017-05-06T11:51:28.667Z,37.54
2017-05-06T11:52:28.604Z,37.63
2017-05-06T11:53:28.541Z,37.54
2017-05-06T11:54:28.479Z,37.63
2017-05-06T11:55:28.416Z,37.63
2017-05-06T11:56:28.355Z,37.35
2017-05-06T11:57:28.294Z,37.63
2017-05-06T11:58:28.232Z,37.73
2017-05-06T11:59:28.190Z,37.54
2017-05-06T12:00:28.131Z,37.63
2017-05-06T12:01:28.070Z,37.73
2017-05-06T12:02:27.987Z,37.63
2017-05-06T12:03:27.919Z,37.54
2017-05-06T12:04:27.857Z,37.54
2017-05-06T12:05:27.487Z,37.63
2017-05-06T12:06:27.736Z,37.54
2017-05-06T12:07:27.673Z,37.54
2017-05-06T12:08:27.612Z,37.25
2017-05-06T12:09:27.545Z,37.45
2017-05-06T12:10:27.488Z,37.45
2017-05-06T12:11:27.422Z,37.35
2017-05-06T12:12:27.367Z,37.35
2017-05-06T12:13:26.989Z,37.63
2017-05-06T12:14:27.256Z,37.45
2017-05-06T12:15:27.172Z,37.54
2017-05-06T12:16:26.848Z,37.54
2017-05-06T12:17:27.050Z,37.73
2017-05-06T12:18:26.990Z,37.45
2017-05-06T12:19:26.925Z,37.63
2017-05-06T12:20:26.551Z,37.35
2017-05-06T12:21:26.805Z,37.45
2017-05-06T12:22:26.436Z,37.35
2017-05-06T12:23:26.675Z,37.73
2017-05-06T12:24:26.625Z,37.35
2017-05-06T12:25:26.571Z,37.35
2017-05-06T12:26:26.488Z,37.73
2017-05-06T12:27:26.429Z,37.54
2017-05-06T12:28:26.366Z,37.73
2017-05-06T12:29:26.503Z,37.73
2017-05-06T12:30:26.242Z,37.63
2017-05-06T12:31:26.178Z,37.63
2017-05-06T12:32:26.127Z,37.63
2017-05-06T12:33:26.057Z,37.35
2017-05-06T12:34:26.370Z,37.15
2017-05-06T12:35:25.930Z,37.63
2017-05-06T12:36:25.866Z,37.73
2017-05-06T12:37:25.805Z,37.63
2017-05-06T12:38:25.752Z,37.54
2017-05-06T12:39:25.686Z,37.63
2017-05-06T12:40:25.620Z,37.45
2017-05-06T12:41:25.254Z,37.54
2017-05-06T12:42:25.503Z,37.25
2017-05-06T12:43:25.431Z,37.54
2017-05-06T12:44:25.375Z,37.45
2017-05-06T12:45:25.311Z,37.54
2017-05-06T12:46:25.245Z,37.35
2017-05-06T12:47:25.181Z,37.06
2017-05-06T12:48:25.122Z,37.63
2017-05-06T12:49:25.062Z,37.54
2017-05-06T12:50:24.997Z,37.35
2017-05-06T12:51:24.939Z,37.63
2017-05-06T12:52:24.873Z,37.63